Remember When — ZCXN6 — position and weather

sailwx.info

Track history (hours):
 
Tides and Currents Weather Stations Pressure Air Temp Water Temp Dewpoint Dewpoint Depression Visibility Wind Speed Wind Dir Waves Ship Positions

Remember When

Last reported at 2017-Jun-09 20:56 UTC. Time now 2017-Jun-26 18:50 UTC.
Position N 26°06' W 079°32'.
Warning: this ship's position is 16 days out of date.

Length 44 m; draft 2.6 m.

Type: Pleasure craft. MMSI: 319582000.

Date/timePositionNaut miles runAvg speedWind from/ knotsBaromVisibWave heightAir tempDewpointWater temp
2017-Jun-09 20:56N 26°06' W 079°32'4 9.9
2017-Jun-09 20:30N 26°06' W 079°37'5 9.7
2017-Jun-09 20:00N 26°06' W 079°42'5 9.7
2017-Jun-09 19:30N 26°06' W 079°48'510.0
2017-Jun-09 19:00N 26°06' W 079°53'5 9.6
2017-Jun-09 18:30N 26°06' W 079°59'5 9.7
2017-Jun-09 18:00N 26°05' W 080°04'3 6.2
2017-Jun-09 17:30N 26°06' W 080°07'1 1.4
2017-Jun-09 16:58N 26°07' W 080°07'0 0.1
2017-Jun-09 16:28N 26°07' W 080°07'0 0.0
2017-Jun-09 15:58N 26°07' W 080°07'0 0.0
2017-Jun-09 15:25N 26°07' W 080°07'0 0.0
2017-Jun-09 14:55N 26°07' W 080°07'0 0.0
2017-Jun-09 14:25N 26°07' W 080°07'0 0.0
2017-Jun-09 13:25N 26°07' W 080°07'0 0.0
2017-Jun-09 12:52N 26°07' W 080°07'0 0.0
2017-Jun-09 12:28N 26°07' W 080°07'0 0.0
2017-Jun-09 11:58N 26°07' W 080°07'0 0.0
2017-Jun-09 11:28N 26°07' W 080°07'0 0.0
2017-Jun-09 10:58N 26°07' W 080°07'0 0.0
2017-Jun-09 10:28N 26°07' W 080°07'0 0.0
2017-Jun-09 09:58N 26°07' W 080°07'0 0.0
2017-Jun-09 09:28N 26°07' W 080°07'0 0.0
2017-Jun-09 08:58N 26°07' W 080°07'0 0.0
2017-Jun-09 08:28N 26°07' W 080°07'0 0.0
2017-Jun-09 07:58N 26°07' W 080°07'0 0.0
2017-Jun-09 07:28N 26°07' W 080°07'0 0.0
2017-Jun-09 06:58N 26°07' W 080°07'0 0.0
2017-Jun-09 06:28N 26°07' W 080°07'0 0.0
2017-Jun-09 05:58N 26°07' W 080°07'0 0.0
2017-Jun-09 05:19N 26°07' W 080°07'0 0.0
2017-Jun-09 05:01N 26°07' W 080°07'0 0.0
2017-Jun-09 04:31N 26°07' W 080°07'0 0.0
2017-Jun-09 04:01N 26°07' W 080°07'0 0.0
2017-Jun-09 03:31N 26°07' W 080°07'0 0.0
2017-Jun-09 02:52N 26°07' W 080°07'0 0.0
2017-Jun-09 02:22N 26°07' W 080°07'0 0.0
2017-Jun-09 01:52N 26°07' W 080°07'0 0.0
2017-Jun-09 01:22N 26°07' W 080°07'0 0.0
2017-Jun-09 00:55N 26°07' W 080°07'0 0.0
2017-Jun-09 00:25N 26°07' W 080°07'0 0.0
2017-Jun-08 23:40N 26°07' W 080°07'0 0.0
2017-Jun-08 23:25N 26°07' W 080°07'0 0.0
2017-Jun-08 22:55N 26°07' W 080°07'0 0.0
2017-Jun-08 22:28N 26°07' W 080°07'0 0.0
2017-Jun-08 21:58N 26°07' W 080°07'0 0.0
2017-Jun-08 21:28N 26°07' W 080°07'0 0.0
2017-Jun-08 20:58N 26°07' W 080°07'0 0.0
2017-Jun-08 20:25N 26°07' W 080°07'0 0.0
2017-Jun-08 19:58N 26°07' W 080°07'0 0.0
2017-Jun-08 19:31N 26°07' W 080°07'0 0.0
2017-Jun-08 19:01N 26°07' W 080°07'0 0.0
2017-Jun-08 18:28N 26°07' W 080°07'0 0.0
2017-Jun-08 18:01N 26°07' W 080°07'0 0.0
2017-Jun-08 17:31N 26°07' W 080°07'0 0.0
2017-Jun-08 17:01N 26°07' W 080°07'0 0.0
2017-Jun-08 16:16N 26°07' W 080°07'0 0.0
2017-Jun-08 16:01N 26°07' W 080°07'0 0.0
2017-Jun-08 15:31N 26°07' W 080°07'0 0.0
2017-Jun-08 14:49N 26°07' W 080°07'0 0.0
2017-Jun-08 14:31N 26°07' W 080°07'0 0.0
2017-Jun-08 13:31N 26°07' W 080°07'0 0.0
2017-Jun-08 13:01N 26°07' W 080°07'0 0.0
2017-Jun-08 12:22N 26°07' W 080°07'0 0.0
2017-Jun-08 11:52N 26°07' W 080°07'0 0.0
2017-Jun-08 11:22N 26°07' W 080°07'0 0.0
2017-Jun-08 10:55N 26°07' W 080°07'0 0.0
2017-Jun-08 10:25N 26°07' W 080°07'0 0.0
2017-Jun-08 09:55N 26°07' W 080°07'0 0.0
2017-Jun-08 09:25N 26°07' W 080°07'0 0.0
2017-Jun-08 08:55N 26°07' W 080°07'0 0.0
2017-Jun-08 08:22N 26°07' W 080°07'0 0.0
2017-Jun-08 07:58N 26°07' W 080°07'0 0.0
2017-Jun-08 07:25N 26°07' W 080°07'0 0.0
2017-Jun-08 06:58N 26°07' W 080°07'0 0.0
2017-Jun-08 06:28N 26°07' W 080°07'0 0.0
2017-Jun-08 05:58N 26°07' W 080°07'0 0.0
2017-Jun-08 05:31N 26°07' W 080°07'0 0.0
2017-Jun-08 04:58N 26°07' W 080°07'0 0.0
2017-Jun-08 04:31N 26°07' W 080°07'0 0.0
2017-Jun-08 04:01N 26°07' W 080°07'0 0.0
2017-Jun-08 03:31N 26°07' W 080°07'0 0.0
2017-Jun-08 03:01N 26°07' W 080°07'0 0.0
2017-Jun-08 02:31N 26°07' W 080°07'0 0.0
2017-Jun-08 01:58N 26°07' W 080°07'0 0.0
2017-Jun-08 01:31N 26°07' W 080°07'0 0.0
2017-Jun-08 01:01N 26°07' W 080°07'0 0.0
2017-Jun-08 00:18N 26°07' W 080°07'0 0.0
2017-Jun-08 00:00N 26°07' W 080°07'0 0.0
2017-Jun-07 23:18N 26°07' W 080°07'0 0.0
2017-Jun-07 23:01N 26°07' W 080°07'0 0.0
2017-Jun-07 22:30N 26°07' W 080°07'0 0.0
2017-Jun-07 21:51N 26°07' W 080°07'0 0.0
2017-Jun-07 21:21N 26°07' W 080°07'0 0.0
2017-Jun-07 20:55N 26°07' W 080°07'0 0.0
2017-Jun-07 20:24N 26°07' W 080°07'0 0.0
2017-Jun-07 19:51N 26°07' W 080°07'0 0.0
2017-Jun-07 19:24N 26°07' W 080°07'0 0.0
2017-Jun-07 18:54N 26°07' W 080°07'0 0.0
2017-Jun-07 18:24N 26°07' W 080°07'0 0.0
2017-Jun-07 17:57N 26°07' W 080°07'0 0.0
2017-Jun-07 17:27N 26°07' W 080°07'0 0.0
2017-Jun-07 16:57N 26°07' W 080°07'0 0.0
2017-Jun-07 16:27N 26°07' W 080°07'0 0.0
2017-Jun-07 15:57N 26°07' W 080°07'0 0.0
2017-Jun-07 15:27N 26°07' W 080°07'0 0.0
2017-Jun-07 15:00N 26°07' W 080°07'0 0.0
2017-Jun-07 14:00N 26°07' W 080°07'0 0.0
2017-Jun-07 13:30N 26°07' W 080°07'0 0.0
2017-Jun-07 13:00N 26°07' W 080°07'0 0.0
2017-Jun-07 12:30N 26°07' W 080°07'0 0.0
2017-Jun-07 11:48N 26°07' W 080°07'0 0.0
2017-Jun-07 11:27N 26°07' W 080°07'0 0.0
2017-Jun-07 11:00N 26°07' W 080°07'0 0.0
2017-Jun-07 10:30N 26°07' W 080°07'0 0.0
2017-Jun-07 09:48N 26°07' W 080°07'0 0.0
2017-Jun-07 09:30N 26°07' W 080°07'0 0.0
2017-Jun-07 09:00N 26°07' W 080°07'0 0.0
2017-Jun-07 08:21N 26°07' W 080°07'0 0.0
2017-Jun-07 07:51N 26°07' W 080°07'0 0.0
2017-Jun-07 07:21N 26°07' W 080°07'0 0.0
2017-Jun-07 06:54N 26°07' W 080°07'0 0.0
2017-Jun-07 06:24N 26°07' W 080°07'0 0.0
2017-Jun-07 05:54N 26°07' W 080°07'0 0.0
2017-Jun-07 05:24N 26°07' W 080°07'0 0.0
2017-Jun-07 04:54N 26°07' W 080°07'0 0.0
2017-Jun-07 04:21N 26°07' W 080°07'0 0.0
2017-Jun-07 03:57N 26°07' W 080°07'0 0.0
2017-Jun-07 03:27N 26°07' W 080°07'0 0.0
2017-Jun-07 02:57N 26°07' W 080°07'0 0.0
2017-Jun-07 02:27N 26°07' W 080°07'0 0.0
2017-Jun-07 01:57N 26°07' W 080°07'0 0.0
2017-Jun-07 01:27N 26°07' W 080°07'0 0.0
2017-Jun-07 01:00N 26°07' W 080°07'0 0.0
2017-Jun-07 00:30N 26°07' W 080°07'0 0.0
2017-Jun-07 00:00N 26°07' W 080°07'0 0.0
2017-Jun-06 23:30N 26°07' W 080°07'0 0.0
2017-Jun-06 23:00N 26°07' W 080°07'0 0.0
2017-Jun-06 22:30N 26°07' W 080°07'0 0.0
2017-Jun-06 22:00N 26°07' W 080°07'0 0.0
2017-Jun-06 21:30N 26°07' W 080°07'0 0.0
2017-Jun-06 21:00N 26°07' W 080°07'0 0.0
2017-Jun-06 20:30N 26°07' W 080°07'0 0.0
2017-Jun-06 20:00N 26°07' W 080°07'0 0.0
2017-Jun-06 19:30N 26°07' W 080°07'0 0.0
2017-Jun-06 19:00N 26°07' W 080°07'0 0.0
2017-Jun-06 18:30N 26°07' W 080°07'0 0.0
2017-Jun-06 17:51N 26°07' W 080°07'0 0.0
2017-Jun-06 17:18N 26°07' W 080°07'0 0.0
2017-Jun-06 16:51N 26°07' W 080°07'0 0.0
2017-Jun-06 16:30N 26°07' W 080°07'0 0.0
2017-Jun-06 16:00N 26°07' W 080°07'0 0.0
2017-Jun-06 15:30N 26°07' W 080°07'0 0.0
2017-Jun-06 15:00N 26°07' W 080°07'0 0.0
2017-Jun-06 14:30N 26°07' W 080°07'0 0.0
2017-Jun-06 13:30N 26°07' W 080°07'0 0.0
2017-Jun-06 13:00N 26°07' W 080°07'0 0.0
2017-Jun-06 12:30N 26°07' W 080°07'0 0.0
2017-Jun-06 12:00N 26°07' W 080°07'0 0.0
2017-Jun-06 11:30N 26°07' W 080°07'0 0.0
2017-Jun-06 11:00N 26°07' W 080°07'0 0.0
2017-Jun-06 10:30N 26°07' W 080°07'0 0.0
2017-Jun-06 10:00N 26°07' W 080°07'0 0.0
2017-Jun-06 09:30N 26°07' W 080°07'0 0.0
2017-Jun-06 09:00N 26°07' W 080°07'0 0.0
2017-Jun-06 08:30N 26°07' W 080°07'0 0.0
2017-Jun-06 08:00N 26°07' W 080°07'0 0.0
2017-Jun-06 07:30N 26°07' W 080°07'0 0.0
2017-Jun-06 07:00N 26°07' W 080°07'0 0.0
2017-Jun-06 06:30N 26°07' W 080°07'0 0.0
2017-Jun-06 06:00N 26°07' W 080°07'0 0.0
2017-Jun-06 05:30N 26°07' W 080°07'0 0.0
2017-Jun-06 05:00N 26°07' W 080°07'0 0.0
2017-Jun-06 04:30N 26°07' W 080°07'0 0.0
2017-Jun-06 04:00N 26°07' W 080°07'0 0.0
2017-Jun-06 03:30N 26°07' W 080°07'0 0.0
2017-Jun-06 03:00N 26°07' W 080°07'0 0.0
2017-Jun-06 02:30N 26°07' W 080°07'0 0.0
2017-Jun-06 02:00N 26°07' W 080°07'0 0.0
2017-Jun-06 01:30N 26°07' W 080°07'0 0.0
2017-Jun-06 01:00N 26°07' W 080°07'0 0.0
2017-Jun-06 00:30N 26°07' W 080°07'0 0.0
2017-Jun-06 00:00N 26°07' W 080°07'0 0.0
2017-Jun-05 23:30N 26°07' W 080°07'0 0.0
2017-Jun-05 23:00N 26°07' W 080°07'0 0.0
2017-Jun-05 22:30N 26°07' W 080°07'0 0.0
2017-Jun-05 22:00N 26°07' W 080°07'0 0.0
2017-Jun-05 21:30N 26°07' W 080°07'0 0.0
2017-Jun-05 21:00N 26°07' W 080°07'0 0.0
2017-Jun-05 20:30N 26°07' W 080°07'0 0.0
2017-Jun-05 20:00N 26°07' W 080°07'0 0.0
2017-Jun-05 19:30N 26°07' W 080°07'0 0.0
2017-Jun-05 19:00N 26°07' W 080°07'0 0.0
2017-Jun-05 18:30N 26°07' W 080°07'0 0.0
2017-Jun-05 18:00N 26°07' W 080°07'0 0.0
2017-Jun-05 17:30N 26°07' W 080°07'0 0.0
2017-Jun-05 17:00N 26°07' W 080°07'0 0.0
2017-Jun-05 16:30N 26°07' W 080°07'0 0.0
2017-Jun-05 16:00N 26°07' W 080°07'0 0.0
2017-Jun-05 15:30N 26°07' W 080°07'0 0.0
2017-Jun-05 15:00N 26°07' W 080°07'0 0.0
2017-Jun-05 14:30N 26°07' W 080°07'0 0.0
2017-Jun-05 13:30N 26°07' W 080°07'0 0.0
2017-Jun-05 13:00N 26°07' W 080°07'0 0.0
2017-Jun-05 12:30N 26°07' W 080°07'0 0.0
2017-Jun-05 12:00N 26°07' W 080°07'0 0.0
2017-Jun-05 11:27N 26°07' W 080°07'0 0.0
2017-Jun-05 11:00N 26°07' W 080°07'0 0.0
2017-Jun-05 10:30N 26°07' W 080°07'0 0.0
2017-Jun-05 10:00N 26°07' W 080°07'0 0.0
2017-Jun-05 09:30N 26°07' W 080°07'0 0.0
2017-Jun-05 09:00N 26°07' W 080°07'0 0.0
2017-Jun-05 08:30N 26°07' W 080°07'0 0.0
2017-Jun-05 08:00N 26°07' W 080°07'0 0.0
2017-Jun-05 07:30N 26°07' W 080°07'0 0.0
2017-Jun-05 07:00N 26°07' W 080°07'0 0.0
2017-Jun-05 06:30N 26°07' W 080°07'0 0.0
2017-Jun-05 06:00N 26°07' W 080°07'0 0.0
2017-Jun-05 05:30N 26°07' W 080°07'0 0.0
2017-Jun-05 05:00N 26°07' W 080°07'0 0.0
2017-Jun-05 04:30N 26°07' W 080°07'0 0.0
2017-Jun-05 04:00N 26°07' W 080°07'0 0.0
2017-Jun-05 03:30N 26°07' W 080°07'0 0.0
2017-Jun-05 03:00N 26°07' W 080°07'0 0.0
2017-Jun-05 02:30N 26°07' W 080°07'0 0.0
2017-Jun-05 02:00N 26°07' W 080°07'0 0.0
2017-Jun-05 01:30N 26°07' W 080°07'0 0.0
2017-Jun-05 01:00N 26°07' W 080°07'0 0.0
2017-Jun-05 00:30N 26°07' W 080°07'0 0.0
2017-Jun-05 00:00N 26°07' W 080°07'0 0.0
2017-Jun-04 23:30N 26°07' W 080°07'0 0.0
2017-Jun-04 23:00N 26°07' W 080°07'0 0.0
2017-Jun-04 22:30N 26°07' W 080°07'0 0.0
2017-Jun-04 21:57N 26°07' W 080°07'0 0.0
2017-Jun-04 21:30N 26°07' W 080°07'0 0.0
2017-Jun-04 21:00N 26°07' W 080°07'0 0.0
2017-Jun-04 20:30N 26°07' W 080°07'0 0.0
2017-Jun-04 20:00N 26°07' W 080°07'0 0.0
2017-Jun-04 19:30N 26°07' W 080°07'0 0.0
2017-Jun-04 19:00N 26°07' W 080°07'0 0.0
2017-Jun-04 18:30N 26°07' W 080°07'0 0.0
2017-Jun-04 18:00N 26°07' W 080°07'0 0.0
2017-Jun-04 17:30N 26°07' W 080°07'0 0.0
2017-Jun-04 17:00N 26°07' W 080°07'0 0.0
2017-Jun-04 16:30N 26°07' W 080°07'0 0.0
2017-Jun-04 16:00N 26°07' W 080°07'0 0.0
2017-Jun-04 15:30N 26°07' W 080°07'0 0.0
2017-Jun-04 15:00N 26°07' W 080°07'0 0.0
2017-Jun-04 14:30N 26°07' W 080°07'0 0.0
2017-Jun-04 13:30N 26°07' W 080°07'0 0.0
2017-Jun-04 13:00N 26°07' W 080°07'0 0.0
2017-Jun-04 12:30N 26°07' W 080°07'0 0.0
2017-Jun-04 12:00N 26°07' W 080°07'0 0.0
2017-Jun-04 11:30N 26°07' W 080°07'0 0.0
2017-Jun-04 11:00N 26°07' W 080°07'0 0.0
2017-Jun-04 10:30N 26°07' W 080°07'0 0.0
2017-Jun-04 10:00N 26°07' W 080°07'1 2.0
2017-Jun-04 09:30N 26°06' W 080°07'510.8
2017-Jun-04 09:00N 26°06' W 080°01'714.5
2017-Jun-04 08:30N 26°06' W 079°53'714.3
2017-Jun-04 08:00N 26°06' W 079°45'510.5
2017-Jun-04 07:30N 26°06' W 079°39'510.5
2017-Jun-04 07:00N 26°06' W 079°33'1710.7
2017-Jun-04 05:23N 26°06' W 079°14'  
Track history (hours):
 
Tides and Currents Weather Stations Pressure Air Temp Water Temp Dewpoint Dewpoint Depression Visibility Wind Speed Wind Dir Waves Ship Positions

Remember When

Last reported at 2017-Jun-09 20:56 UTC. Time now 2017-Jun-26 18:50 UTC.
Position N 26°06' W 079°32'.
Warning: this ship's position is 16 days out of date.

Length 44 m; draft 2.6 m.

Type: Pleasure craft. MMSI: 319582000.

Date/timePositionNaut miles runAvg speedWind from/ knotsBaromVisibWave heightAir tempDewpointWater temp
2017-Jun-09 20:56N 26°06' W 079°32'4 9.9
2017-Jun-09 20:30N 26°06' W 079°37'5 9.7
2017-Jun-09 20:00N 26°06' W 079°42'5 9.7
2017-Jun-09 19:30N 26°06' W 079°48'510.0
2017-Jun-09 19:00N 26°06' W 079°53'5 9.6
2017-Jun-09 18:30N 26°06' W 079°59'5 9.7
2017-Jun-09 18:00N 26°05' W 080°04'3 6.2
2017-Jun-09 17:30N 26°06' W 080°07'1 1.4
2017-Jun-09 16:58N 26°07' W 080°07'0 0.1
2017-Jun-09 16:28N 26°07' W 080°07'0 0.0
2017-Jun-09 15:58N 26°07' W 080°07'0 0.0
2017-Jun-09 15:25N 26°07' W 080°07'0 0.0
2017-Jun-09 14:55N 26°07' W 080°07'0 0.0
2017-Jun-09 14:25N 26°07' W 080°07'0 0.0
2017-Jun-09 13:25N 26°07' W 080°07'0 0.0
2017-Jun-09 12:52N 26°07' W 080°07'0 0.0
2017-Jun-09 12:28N 26°07' W 080°07'0 0.0
2017-Jun-09 11:58N 26°07' W 080°07'0 0.0
2017-Jun-09 11:28N 26°07' W 080°07'0 0.0
2017-Jun-09 10:58N 26°07' W 080°07'0 0.0
2017-Jun-09 10:28N 26°07' W 080°07'0 0.0
2017-Jun-09 09:58N 26°07' W 080°07'0 0.0
2017-Jun-09 09:28N 26°07' W 080°07'0 0.0
2017-Jun-09 08:58N 26°07' W 080°07'0 0.0
2017-Jun-09 08:28N 26°07' W 080°07'0 0.0
2017-Jun-09 07:58N 26°07' W 080°07'0 0.0
2017-Jun-09 07:28N 26°07' W 080°07'0 0.0
2017-Jun-09 06:58N 26°07' W 080°07'0 0.0
2017-Jun-09 06:28N 26°07' W 080°07'0 0.0
2017-Jun-09 05:58N 26°07' W 080°07'0 0.0
2017-Jun-09 05:19N 26°07' W 080°07'0 0.0
2017-Jun-09 05:01N 26°07' W 080°07'0 0.0
2017-Jun-09 04:31N 26°07' W 080°07'0 0.0
2017-Jun-09 04:01N 26°07' W 080°07'0 0.0
2017-Jun-09 03:31N 26°07' W 080°07'0 0.0
2017-Jun-09 02:52N 26°07' W 080°07'0 0.0
2017-Jun-09 02:22N 26°07' W 080°07'0 0.0
2017-Jun-09 01:52N 26°07' W 080°07'0 0.0
2017-Jun-09 01:22N 26°07' W 080°07'0 0.0
2017-Jun-09 00:55N 26°07' W 080°07'0 0.0
2017-Jun-09 00:25N 26°07' W 080°07'0 0.0
2017-Jun-08 23:40N 26°07' W 080°07'0 0.0
2017-Jun-08 23:25N 26°07' W 080°07'0 0.0
2017-Jun-08 22:55N 26°07' W 080°07'0 0.0
2017-Jun-08 22:28N 26°07' W 080°07'0 0.0
2017-Jun-08 21:58N 26°07' W 080°07'0 0.0
2017-Jun-08 21:28N 26°07' W 080°07'0 0.0
2017-Jun-08 20:58N 26°07' W 080°07'0 0.0
2017-Jun-08 20:25N 26°07' W 080°07'0 0.0
2017-Jun-08 19:58N 26°07' W 080°07'0 0.0
2017-Jun-08 19:31N 26°07' W 080°07'0 0.0
2017-Jun-08 19:01N 26°07' W 080°07'0 0.0
2017-Jun-08 18:28N 26°07' W 080°07'0 0.0
2017-Jun-08 18:01N 26°07' W 080°07'0 0.0
2017-Jun-08 17:31N 26°07' W 080°07'0 0.0
2017-Jun-08 17:01N 26°07' W 080°07'0 0.0
2017-Jun-08 16:16N 26°07' W 080°07'0 0.0
2017-Jun-08 16:01N 26°07' W 080°07'0 0.0
2017-Jun-08 15:31N 26°07' W 080°07'0 0.0
2017-Jun-08 14:49N 26°07' W 080°07'0 0.0
2017-Jun-08 14:31N 26°07' W 080°07'0 0.0
2017-Jun-08 13:31N 26°07' W 080°07'0 0.0
2017-Jun-08 13:01N 26°07' W 080°07'0 0.0
2017-Jun-08 12:22N 26°07' W 080°07'0 0.0
2017-Jun-08 11:52N 26°07' W 080°07'0 0.0
2017-Jun-08 11:22N 26°07' W 080°07'0 0.0
2017-Jun-08 10:55N 26°07' W 080°07'0 0.0
2017-Jun-08 10:25N 26°07' W 080°07'0 0.0
2017-Jun-08 09:55N 26°07' W 080°07'0 0.0
2017-Jun-08 09:25N 26°07' W 080°07'0 0.0
2017-Jun-08 08:55N 26°07' W 080°07'0 0.0
2017-Jun-08 08:22N 26°07' W 080°07'0 0.0
2017-Jun-08 07:58N 26°07' W 080°07'0 0.0
2017-Jun-08 07:25N 26°07' W 080°07'0 0.0
2017-Jun-08 06:58N 26°07' W 080°07'0 0.0
2017-Jun-08 06:28N 26°07' W 080°07'0 0.0
2017-Jun-08 05:58N 26°07' W 080°07'0 0.0
2017-Jun-08 05:31N 26°07' W 080°07'0 0.0
2017-Jun-08 04:58N 26°07' W 080°07'0 0.0
2017-Jun-08 04:31N 26°07' W 080°07'0 0.0
2017-Jun-08 04:01N 26°07' W 080°07'0 0.0
2017-Jun-08 03:31N 26°07' W 080°07'0 0.0
2017-Jun-08 03:01N 26°07' W 080°07'0 0.0
2017-Jun-08 02:31N 26°07' W 080°07'0 0.0
2017-Jun-08 01:58N 26°07' W 080°07'0 0.0
2017-Jun-08 01:31N 26°07' W 080°07'0 0.0
2017-Jun-08 01:01N 26°07' W 080°07'0 0.0
2017-Jun-08 00:18N 26°07' W 080°07'0 0.0
2017-Jun-08 00:00N 26°07' W 080°07'0 0.0
2017-Jun-07 23:18N 26°07' W 080°07'0 0.0
2017-Jun-07 23:01N 26°07' W 080°07'0 0.0
2017-Jun-07 22:30N 26°07' W 080°07'0 0.0
2017-Jun-07 21:51N 26°07' W 080°07'0 0.0
2017-Jun-07 21:21N 26°07' W 080°07'0 0.0
2017-Jun-07 20:55N 26°07' W 080°07'0 0.0
2017-Jun-07 20:24N 26°07' W 080°07'0 0.0
2017-Jun-07 19:51N 26°07' W 080°07'0 0.0
2017-Jun-07 19:24N 26°07' W 080°07'0 0.0
2017-Jun-07 18:54N 26°07' W 080°07'0 0.0
2017-Jun-07 18:24N 26°07' W 080°07'0 0.0
2017-Jun-07 17:57N 26°07' W 080°07'0 0.0
2017-Jun-07 17:27N 26°07' W 080°07'0 0.0
2017-Jun-07 16:57N 26°07' W 080°07'0 0.0
2017-Jun-07 16:27N 26°07' W 080°07'0 0.0
2017-Jun-07 15:57N 26°07' W 080°07'0 0.0
2017-Jun-07 15:27N 26°07' W 080°07'0 0.0
2017-Jun-07 15:00N 26°07' W 080°07'0 0.0
2017-Jun-07 14:00N 26°07' W 080°07'0 0.0
2017-Jun-07 13:30N 26°07' W 080°07'0 0.0
2017-Jun-07 13:00N 26°07' W 080°07'0 0.0
2017-Jun-07 12:30N 26°07' W 080°07'0 0.0
2017-Jun-07 11:48N 26°07' W 080°07'0 0.0
2017-Jun-07 11:27N 26°07' W 080°07'0 0.0
2017-Jun-07 11:00N 26°07' W 080°07'0 0.0
2017-Jun-07 10:30N 26°07' W 080°07'0 0.0
2017-Jun-07 09:48N 26°07' W 080°07'0 0.0
2017-Jun-07 09:30N 26°07' W 080°07'0 0.0
2017-Jun-07 09:00N 26°07' W 080°07'0 0.0
2017-Jun-07 08:21N 26°07' W 080°07'0 0.0
2017-Jun-07 07:51N 26°07' W 080°07'0 0.0
2017-Jun-07 07:21N 26°07' W 080°07'0 0.0
2017-Jun-07 06:54N 26°07' W 080°07'0 0.0
2017-Jun-07 06:24N 26°07' W 080°07'0 0.0
2017-Jun-07 05:54N 26°07' W 080°07'0 0.0
2017-Jun-07 05:24N 26°07' W 080°07'0 0.0
2017-Jun-07 04:54N 26°07' W 080°07'0 0.0
2017-Jun-07 04:21N 26°07' W 080°07'0 0.0
2017-Jun-07 03:57N 26°07' W 080°07'0 0.0
2017-Jun-07 03:27N 26°07' W 080°07'0 0.0
2017-Jun-07 02:57N 26°07' W 080°07'0 0.0
2017-Jun-07 02:27N 26°07' W 080°07'0 0.0
2017-Jun-07 01:57N 26°07' W 080°07'0 0.0
2017-Jun-07 01:27N 26°07' W 080°07'0 0.0
2017-Jun-07 01:00N 26°07' W 080°07'0 0.0
2017-Jun-07 00:30N 26°07' W 080°07'0 0.0
2017-Jun-07 00:00N 26°07' W 080°07'0 0.0
2017-Jun-06 23:30N 26°07' W 080°07'0 0.0
2017-Jun-06 23:00N 26°07' W 080°07'0 0.0
2017-Jun-06 22:30N 26°07' W 080°07'0 0.0
2017-Jun-06 22:00N 26°07' W 080°07'0 0.0
2017-Jun-06 21:30N 26°07' W 080°07'0 0.0
2017-Jun-06 21:00N 26°07' W 080°07'0 0.0
2017-Jun-06 20:30N 26°07' W 080°07'0 0.0
2017-Jun-06 20:00N 26°07' W 080°07'0 0.0
2017-Jun-06 19:30N 26°07' W 080°07'0 0.0
2017-Jun-06 19:00N 26°07' W 080°07'0 0.0
2017-Jun-06 18:30N 26°07' W 080°07'0 0.0
2017-Jun-06 17:51N 26°07' W 080°07'0 0.0
2017-Jun-06 17:18N 26°07' W 080°07'0 0.0
2017-Jun-06 16:51N 26°07' W 080°07'0 0.0
2017-Jun-06 16:30N 26°07' W 080°07'0 0.0
2017-Jun-06 16:00N 26°07' W 080°07'0 0.0
2017-Jun-06 15:30N 26°07' W 080°07'0 0.0
2017-Jun-06 15:00N 26°07' W 080°07'0 0.0
2017-Jun-06 14:30N 26°07' W 080°07'0 0.0
2017-Jun-06 13:30N 26°07' W 080°07'0 0.0
2017-Jun-06 13:00N 26°07' W 080°07'0 0.0
2017-Jun-06 12:30N 26°07' W 080°07'0 0.0
2017-Jun-06 12:00N 26°07' W 080°07'0 0.0
2017-Jun-06 11:30N 26°07' W 080°07'0 0.0
2017-Jun-06 11:00N 26°07' W 080°07'0 0.0
2017-Jun-06 10:30N 26°07' W 080°07'0 0.0
2017-Jun-06 10:00N 26°07' W 080°07'0 0.0
2017-Jun-06 09:30N 26°07' W 080°07'0 0.0
2017-Jun-06 09:00N 26°07' W 080°07'0 0.0
2017-Jun-06 08:30N 26°07' W 080°07'0 0.0
2017-Jun-06 08:00N 26°07' W 080°07'0 0.0
2017-Jun-06 07:30N 26°07' W 080°07'0 0.0
2017-Jun-06 07:00N 26°07' W 080°07'0 0.0
2017-Jun-06 06:30N 26°07' W 080°07'0 0.0
2017-Jun-06 06:00N 26°07' W 080°07'0 0.0
2017-Jun-06 05:30N 26°07' W 080°07'0 0.0
2017-Jun-06 05:00N 26°07' W 080°07'0 0.0
2017-Jun-06 04:30N 26°07' W 080°07'0 0.0
2017-Jun-06 04:00N 26°07' W 080°07'0 0.0
2017-Jun-06 03:30N 26°07' W 080°07'0 0.0
2017-Jun-06 03:00N 26°07' W 080°07'0 0.0
2017-Jun-06 02:30N 26°07' W 080°07'0 0.0
2017-Jun-06 02:00N 26°07' W 080°07'0 0.0
2017-Jun-06 01:30N 26°07' W 080°07'0 0.0
2017-Jun-06 01:00N 26°07' W 080°07'0 0.0
2017-Jun-06 00:30N 26°07' W 080°07'0 0.0
2017-Jun-06 00:00N 26°07' W 080°07'0 0.0
2017-Jun-05 23:30N 26°07' W 080°07'0 0.0
2017-Jun-05 23:00N 26°07' W 080°07'0 0.0
2017-Jun-05 22:30N 26°07' W 080°07'0 0.0
2017-Jun-05 22:00N 26°07' W 080°07'0 0.0
2017-Jun-05 21:30N 26°07' W 080°07'0 0.0
2017-Jun-05 21:00N 26°07' W 080°07'0 0.0
2017-Jun-05 20:30N 26°07' W 080°07'0 0.0
2017-Jun-05 20:00N 26°07' W 080°07'0 0.0
2017-Jun-05 19:30N 26°07' W 080°07'0 0.0
2017-Jun-05 19:00N 26°07' W 080°07'0 0.0
2017-Jun-05 18:30N 26°07' W 080°07'0 0.0
2017-Jun-05 18:00N 26°07' W 080°07'0 0.0
2017-Jun-05 17:30N 26°07' W 080°07'0 0.0
2017-Jun-05 17:00N 26°07' W 080°07'0 0.0
2017-Jun-05 16:30N 26°07' W 080°07'0 0.0
2017-Jun-05 16:00N 26°07' W 080°07'0 0.0
2017-Jun-05 15:30N 26°07' W 080°07'0 0.0
2017-Jun-05 15:00N 26°07' W 080°07'0 0.0
2017-Jun-05 14:30N 26°07' W 080°07'0 0.0
2017-Jun-05 13:30N 26°07' W 080°07'0 0.0
2017-Jun-05 13:00N 26°07' W 080°07'0 0.0
2017-Jun-05 12:30N 26°07' W 080°07'0 0.0
2017-Jun-05 12:00N 26°07' W 080°07'0 0.0
2017-Jun-05 11:27N 26°07' W 080°07'0 0.0
2017-Jun-05 11:00N 26°07' W 080°07'0 0.0
2017-Jun-05 10:30N 26°07' W 080°07'0 0.0
2017-Jun-05 10:00N 26°07' W 080°07'0 0.0
2017-Jun-05 09:30N 26°07' W 080°07'0 0.0
2017-Jun-05 09:00N 26°07' W 080°07'0 0.0
2017-Jun-05 08:30N 26°07' W 080°07'0 0.0
2017-Jun-05 08:00N 26°07' W 080°07'0 0.0
2017-Jun-05 07:30N 26°07' W 080°07'0 0.0
2017-Jun-05 07:00N 26°07' W 080°07'0 0.0
2017-Jun-05 06:30N 26°07' W 080°07'0 0.0
2017-Jun-05 06:00N 26°07' W 080°07'0 0.0
2017-Jun-05 05:30N 26°07' W 080°07'0 0.0
2017-Jun-05 05:00N 26°07' W 080°07'0 0.0
2017-Jun-05 04:30N 26°07' W 080°07'0 0.0
2017-Jun-05 04:00N 26°07' W 080°07'0 0.0
2017-Jun-05 03:30N 26°07' W 080°07'0 0.0
2017-Jun-05 03:00N 26°07' W 080°07'0 0.0
2017-Jun-05 02:30N 26°07' W 080°07'0 0.0
2017-Jun-05 02:00N 26°07' W 080°07'0 0.0
2017-Jun-05 01:30N 26°07' W 080°07'0 0.0
2017-Jun-05 01:00N 26°07' W 080°07'0 0.0
2017-Jun-05 00:30N 26°07' W 080°07'0 0.0
2017-Jun-05 00:00N 26°07' W 080°07'0 0.0
2017-Jun-04 23:30N 26°07' W 080°07'0 0.0
2017-Jun-04 23:00N 26°07' W 080°07'0 0.0
2017-Jun-04 22:30N 26°07' W 080°07'0 0.0
2017-Jun-04 21:57N 26°07' W 080°07'0 0.0
2017-Jun-04 21:30N 26°07' W 080°07'0 0.0
2017-Jun-04 21:00N 26°07' W 080°07'0 0.0
2017-Jun-04 20:30N 26°07' W 080°07'0 0.0
2017-Jun-04 20:00N 26°07' W 080°07'0 0.0
2017-Jun-04 19:30N 26°07' W 080°07'0 0.0
2017-Jun-04 19:00N 26°07' W 080°07'0 0.0
2017-Jun-04 18:30N 26°07' W 080°07'0 0.0
2017-Jun-04 18:00N 26°07' W 080°07'0 0.0
2017-Jun-04 17:30N 26°07' W 080°07'0 0.0
2017-Jun-04 17:00N 26°07' W 080°07'0 0.0
2017-Jun-04 16:30N 26°07' W 080°07'0 0.0
2017-Jun-04 16:00N 26°07' W 080°07'0 0.0
2017-Jun-04 15:30N 26°07' W 080°07'0 0.0
2017-Jun-04 15:00N 26°07' W 080°07'0 0.0
2017-Jun-04 14:30N 26°07' W 080°07'0 0.0
2017-Jun-04 13:30N 26°07' W 080°07'0 0.0
2017-Jun-04 13:00N 26°07' W 080°07'0 0.0
2017-Jun-04 12:30N 26°07' W 080°07'0 0.0
2017-Jun-04 12:00N 26°07' W 080°07'0 0.0
2017-Jun-04 11:30N 26°07' W 080°07'0 0.0
2017-Jun-04 11:00N 26°07' W 080°07'0 0.0
2017-Jun-04 10:30N 26°07' W 080°07'0 0.0
2017-Jun-04 10:00N 26°07' W 080°07'1 2.0
2017-Jun-04 09:30N 26°06' W 080°07'510.8
2017-Jun-04 09:00N 26°06' W 080°01'714.5
2017-Jun-04 08:30N 26°06' W 079°53'714.3
2017-Jun-04 08:00N 26°06' W 079°45'510.5
2017-Jun-04 07:30N 26°06' W 079°39'510.5
2017-Jun-04 07:00N 26°06' W 079°33'1710.7
2017-Jun-04 05:23N 26°06' W 079°14'  

Dump ship's entire track history